createdAt,value
2019-05-23T00:01:11.572Z,99829.30
2019-05-23T00:04:07.805Z,99830.41
2019-05-23T00:06:58.956Z,99834.06
2019-05-23T00:09:50.888Z,99830.17
2019-05-23T00:12:42.476Z,99834.06
2019-05-23T00:15:38.294Z,99835.03
2019-05-23T00:18:12.127Z,99838.55
2019-05-23T00:20:45.891Z,99837.48
2019-05-23T00:23:19.690Z,99836.30
2019-05-23T00:25:54.159Z,99826.48
2019-05-23T00:28:27.446Z,99826.55
2019-05-23T00:31:04.911Z,99821.91
2019-05-23T00:33:40.323Z,99826.42
2019-05-23T00:36:14.122Z,99821.39
2019-05-23T00:38:46.896Z,99822.81
2019-05-23T00:41:19.306Z,99821.48
2019-05-23T00:43:51.971Z,99819.34
2019-05-23T00:46:24.794Z,99814.12
2019-05-23T00:48:58.175Z,99816.52
2019-05-23T00:51:31.797Z,99815.17
2019-05-23T00:54:04.331Z,99815.54
2019-05-23T00:56:37.234Z,99817.23
2019-05-23T00:59:25.656Z,99807.95
2019-05-23T01:01:44.038Z,99810.08
2019-05-23T01:04:16.922Z,99809.75
2019-05-23T01:06:49.420Z,99816.29
2019-05-23T01:09:22.915Z,99816.14
2019-05-23T01:11:55.389Z,99816.09
2019-05-23T01:14:28.796Z,99821.64
2019-05-23T01:17:01.939Z,99817.42
2019-05-23T01:19:34.356Z,99815.55
2019-05-23T01:22:10.080Z,99817.25
2019-05-23T01:24:45.215Z,99814.72
2019-05-23T01:27:18.691Z,99818.52
2019-05-23T01:29:52.692Z,99818.28
2019-05-23T01:32:46.322Z,99818.64
2019-05-23T01:35:20.212Z,99818.56
2019-05-23T01:37:52.677Z,99815.14
2019-05-23T01:40:25.688Z,99819.02
2019-05-23T01:42:58.473Z,99814.48
2019-05-23T01:45:32.290Z,99814.11
2019-05-23T01:48:06.054Z,99815.12
2019-05-23T01:50:38.658Z,99807.86
2019-05-23T01:53:11.734Z,99808.91
2019-05-23T01:55:44.527Z,99807.75
2019-05-23T01:58:17.636Z,99810.94
2019-05-23T02:00:50.335Z,99812.36
2019-05-23T02:03:23.282Z,99813.98
2019-05-23T02:05:55.762Z,99814.88
2019-05-23T02:08:29.038Z,99810.61
2019-05-23T02:11:02.145Z,99810.03
2019-05-23T02:13:35.147Z,99806.75
2019-05-23T02:16:08.165Z,99810.97
2019-05-23T02:18:40.996Z,99811.11
2019-05-23T02:21:15.035Z,99812.66
2019-05-23T02:23:47.500Z,99810.52
2019-05-23T02:26:23.162Z,99807.95
2019-05-23T02:28:56.129Z,99802.83
2019-05-23T02:31:28.782Z,99806.50
2019-05-23T02:34:02.006Z,99805.95
2019-05-23T02:36:34.592Z,99807.92
2019-05-23T02:39:36.604Z,99808.43
2019-05-23T02:42:31.044Z,99804.95
2019-05-23T02:45:05.572Z,99806.78
2019-05-23T02:47:42.101Z,99801.31
2019-05-23T02:50:27.518Z,99808.45
2019-05-23T02:53:18.052Z,99809.38
2019-05-23T02:56:14.406Z,99806.72
2019-05-23T02:59:44.108Z,99805.43
2019-05-23T03:03:02.588Z,99799.44
2019-05-23T03:05:37.390Z,99798.44
2019-05-23T03:08:12.622Z,99803.20
2019-05-23T03:10:57.053Z,99802.78
2019-05-23T03:13:32.623Z,99798.20
2019-05-23T03:16:05.992Z,99795.75
2019-05-23T03:18:45.974Z,99795.81
2019-05-23T03:21:19.757Z,99798.26
2019-05-23T03:23:52.186Z,99804.07
2019-05-23T03:26:58.232Z,99805.97
2019-05-23T03:29:33.506Z,99807.12
2019-05-23T03:32:23.722Z,99807.21
2019-05-23T03:35:10.444Z,99805.39
2019-05-23T03:37:43.094Z,99803.67
2019-05-23T03:40:15.490Z,99806.45
2019-05-23T03:42:48.207Z,99803.09
2019-05-23T03:45:24.049Z,99806.51
2019-05-23T03:47:57.388Z,99801.17
2019-05-23T03:50:29.798Z,99804.75
2019-05-23T03:53:03.235Z,99801.77
2019-05-23T03:55:36.204Z,99800.08
2019-05-23T03:58:10.381Z,99803.48
2019-05-23T04:00:47.286Z,99803.37
2019-05-23T04:03:20.788Z,99802.36
2019-05-23T04:05:53.649Z,99806.58
2019-05-23T04:08:26.982Z,99800.61
2019-05-23T04:11:00.561Z,99806.64
2019-05-23T04:13:34.065Z,99802.48
2019-05-23T04:16:06.583Z,99805.44
2019-05-23T04:18:39.078Z,99801.11
2019-05-23T04:21:11.488Z,99798.13
2019-05-23T04:23:44.191Z,99794.39
2019-05-23T04:26:16.640Z,99800.34
2019-05-23T04:28:49.154Z,99802.69
2019-05-23T04:31:21.805Z,99803.80
2019-05-23T04:33:54.224Z,99801.99
2019-05-23T04:36:26.613Z,99802.43
2019-05-23T04:38:59.422Z,99801.92
2019-05-23T04:41:31.895Z,99799.55
2019-05-23T04:44:06.298Z,99798.08
2019-05-23T04:46:39.038Z,99800.14
2019-05-23T04:49:11.575Z,99796.09
2019-05-23T04:51:44.741Z,99795.46
2019-05-23T04:54:17.158Z,99798.68
2019-05-23T04:56:50.683Z,99792.74
2019-05-23T04:59:24.050Z,99798.91
2019-05-23T05:01:56.733Z,99797.86
2019-05-23T05:04:29.156Z,99799.23
2019-05-23T05:07:01.618Z,99801.56
2019-05-23T05:09:34.059Z,99801.11
2019-05-23T05:12:06.579Z,99801.23
2019-05-23T05:14:39.370Z,99800.58
2019-05-23T05:17:13.769Z,99804.75
2019-05-23T05:19:48.662Z,99799.17
2019-05-23T05:22:22.523Z,99800.78
2019-05-23T05:24:54.971Z,99804.50
2019-05-23T05:27:27.368Z,99805.64
2019-05-23T05:29:59.802Z,99803.00
2019-05-23T05:32:44.224Z,99801.83
2019-05-23T05:35:07.341Z,99802.75
2019-05-23T05:37:39.729Z,99804.16
2019-05-23T05:40:13.033Z,99805.69
2019-05-23T05:42:46.017Z,99795.13
2019-05-23T05:45:18.634Z,99801.00
2019-05-23T05:47:51.127Z,99796.16
2019-05-23T05:50:24.653Z,99803.72
2019-05-23T05:52:57.101Z,99801.71
2019-05-23T05:55:29.527Z,99805.45
2019-05-23T05:58:01.860Z,99806.48
2019-05-23T06:00:52.142Z,99804.23
2019-05-23T06:03:24.924Z,99805.69
2019-05-23T06:06:04.598Z,99804.94
2019-05-23T06:08:38.103Z,99805.66
2019-05-23T06:11:12.530Z,99809.11
2019-05-23T06:13:45.262Z,99803.83
2019-05-23T06:16:18.313Z,99806.14
2019-05-23T06:18:51.405Z,99808.85
2019-05-23T06:21:26.479Z,99807.73
2019-05-23T06:23:58.980Z,99807.69
2019-05-23T06:26:31.420Z,99811.09
2019-05-23T06:29:04.287Z,99810.39
2019-05-23T06:31:36.822Z,99808.73
2019-05-23T06:34:09.246Z,99805.95
2019-05-23T06:36:42.377Z,99807.98
2019-05-23T06:39:16.558Z,99810.97
2019-05-23T06:41:49.876Z,99805.68
2019-05-23T06:44:22.457Z,99804.17
2019-05-23T06:46:55.277Z,99806.18
2019-05-23T06:49:27.706Z,99811.72
2019-05-23T06:52:00.128Z,99815.80
2019-05-23T06:54:32.537Z,99810.83
2019-05-23T06:57:04.986Z,99815.94
2019-05-23T06:59:37.383Z,99813.02
2019-05-23T07:02:09.849Z,99810.31
2019-05-23T07:04:42.333Z,99807.39
2019-05-23T07:07:14.759Z,99808.48
2019-05-23T07:09:47.924Z,99811.22
2019-05-23T07:12:20.427Z,99815.17
2019-05-23T07:14:52.825Z,99813.15
2019-05-23T07:17:26.044Z,99816.43
2019-05-23T07:19:58.456Z,99817.30
2019-05-23T07:22:30.949Z,99822.70
2019-05-23T07:25:03.430Z,99825.22
2019-05-23T07:27:35.962Z,99827.94
2019-05-23T07:30:11.652Z,99825.47
2019-05-23T07:32:44.148Z,99824.25
2019-05-23T07:35:16.560Z,99830.17
2019-05-23T07:37:49.034Z,99829.39
2019-05-23T07:40:21.536Z,99829.64
2019-05-23T07:42:54.049Z,99825.55
2019-05-23T07:45:39.740Z,99824.95
2019-05-23T07:48:10.530Z,99819.77
2019-05-23T07:50:43.203Z,99819.56
2019-05-23T07:53:21.021Z,99814.22
2019-05-23T07:55:54.343Z,99814.61
2019-05-23T07:58:26.814Z,99814.52
2019-05-23T08:01:01.110Z,99813.50
2019-05-23T08:03:35.109Z,99810.90
2019-05-23T08:06:07.805Z,99810.00
2019-05-23T08:08:40.415Z,99806.88
2019-05-23T08:11:13.174Z,99808.03
2019-05-23T08:13:46.354Z,99800.95
2019-05-23T08:16:18.773Z,99804.41
2019-05-23T08:18:51.491Z,99800.95
2019-05-23T08:21:23.900Z,99793.16
2019-05-23T08:23:56.335Z,99793.75
2019-05-23T08:26:30.945Z,99792.48
2019-05-23T08:29:24.901Z,99797.03
2019-05-23T08:31:38.819Z,99794.87
2019-05-23T08:34:11.603Z,99793.38
2019-05-23T08:36:44.578Z,99788.30
2019-05-23T08:39:17.108Z,99786.00
2019-05-23T08:41:50.165Z,99790.81
2019-05-23T08:44:22.975Z,99786.01
2019-05-23T08:46:55.878Z,99782.20
2019-05-23T08:49:28.289Z,99774.99
2019-05-23T08:52:00.705Z,99776.38
2019-05-23T08:54:33.234Z,99770.39
2019-05-23T08:57:06.964Z,99769.52
2019-05-23T08:59:39.773Z,99765.05
2019-05-23T09:02:13.343Z,99759.39
2019-05-23T09:05:03.700Z,99758.59
2019-05-23T09:07:21.129Z,99756.87
2019-05-23T09:09:54.758Z,99749.97
2019-05-23T09:12:28.312Z,99749.09
2019-05-23T09:15:00.749Z,99754.58
2019-05-23T09:17:51.077Z,99749.20
2019-05-23T09:20:08.018Z,99744.50
2019-05-23T09:22:40.468Z,99750.40
2019-05-23T09:25:14.505Z,99751.50
2019-05-23T09:27:47.611Z,99753.91
2019-05-23T09:30:20.515Z,99755.06
2019-05-23T09:32:53.105Z,99750.35
2019-05-23T09:35:26.029Z,99749.56
2019-05-23T09:37:58.464Z,99749.30
2019-05-23T09:40:31.276Z,99747.22
2019-05-23T09:43:04.917Z,99752.16
2019-05-23T09:45:37.313Z,99754.49
2019-05-23T09:48:09.559Z,99743.13
2019-05-23T09:50:42.068Z,99740.97
2019-05-23T09:53:14.619Z,99743.09
2019-05-23T09:55:46.971Z,99735.43
2019-05-23T09:58:19.346Z,99740.79
2019-05-23T10:00:52.105Z,99742.13
2019-05-23T10:03:24.763Z,99740.69
2019-05-23T10:05:57.245Z,99739.19
2019-05-23T10:08:29.620Z,99740.81
2019-05-23T10:11:02.056Z,99744.84
2019-05-23T10:13:38.996Z,99742.73
2019-05-23T10:16:10.222Z,99737.23
2019-05-23T10:18:45.005Z,99733.52
2019-05-23T10:21:17.273Z,99731.07
2019-05-23T10:23:49.621Z,99726.84
2019-05-23T10:26:22.145Z,99728.14
2019-05-23T10:28:54.446Z,99723.75
2019-05-23T10:31:26.843Z,99724.55
2019-05-23T10:33:59.152Z,99719.78
2019-05-23T10:36:31.561Z,99717.30
2019-05-23T10:39:04.681Z,99715.11
2019-05-23T10:41:37.108Z,99710.48
2019-05-23T10:44:09.469Z,99709.57
2019-05-23T10:46:42.013Z,99716.66
2019-05-23T10:49:14.466Z,99712.72
2019-05-23T10:51:46.888Z,99711.03
2019-05-23T10:54:19.369Z,99710.30
2019-05-23T10:56:51.893Z,99710.91
2019-05-23T10:59:24.146Z,99701.40
2019-05-23T11:01:56.531Z,99698.09
2019-05-23T11:04:28.870Z,99696.55
2019-05-23T11:07:01.213Z,99694.41
2019-05-23T11:09:37.858Z,99688.21
2019-05-23T11:12:08.801Z,99687.05
2019-05-23T11:14:41.390Z,99685.19
2019-05-23T11:17:14.082Z,99678.98
2019-05-23T11:19:46.430Z,99675.36
2019-05-23T11:22:18.817Z,99676.41
2019-05-23T11:24:51.307Z,99675.50
2019-05-23T11:27:24.020Z,99673.66
2019-05-23T11:29:56.472Z,99674.26
2019-05-23T11:32:28.964Z,99676.95
2019-05-23T11:35:01.311Z,99682.88
2019-05-23T11:37:35.072Z,99679.41
2019-05-23T11:40:07.701Z,99675.28
2019-05-23T11:42:40.000Z,99671.52
2019-05-23T11:45:12.424Z,99665.97
2019-05-23T11:47:44.792Z,99669.34
2019-05-23T11:50:17.185Z,99663.66
2019-05-23T11:52:49.560Z,99657.76
2019-05-23T11:55:22.225Z,99654.65
2019-05-23T11:57:54.705Z,99658.64
2019-05-23T12:01:27.998Z,99653.45
2019-05-23T12:04:08.431Z,99652.83
2019-05-23T12:07:08.578Z,99651.33
2019-05-23T12:09:41.111Z,99653.56
2019-05-23T12:12:13.411Z,99650.80
2019-05-23T12:14:45.745Z,99644.60
2019-05-23T12:17:19.535Z,99643.31
2019-05-23T12:19:51.982Z,99643.14
2019-05-23T12:22:25.514Z,99637.95
2019-05-23T12:24:57.978Z,99631.44
2019-05-23T12:27:30.305Z,99630.44
2019-05-23T12:30:04.201Z,99626.34
2019-05-23T12:32:36.596Z,99626.95
2019-05-23T12:35:12.278Z,99620.48
2019-05-23T12:37:44.793Z,99622.75
2019-05-23T12:40:17.447Z,99614.86
2019-05-23T12:42:49.906Z,99622.18
2019-05-23T12:45:22.329Z,99619.64
2019-05-23T12:47:59.496Z,99621.16
2019-05-23T12:50:37.408Z,99615.31
2019-05-23T12:53:11.212Z,99610.62
2019-05-23T12:55:43.632Z,99612.41
2019-05-23T12:58:16.109Z,99608.86
2019-05-23T13:00:52.630Z,99606.25
2019-05-23T13:03:25.003Z,99607.05
2019-05-23T13:05:57.501Z,99603.30
2019-05-23T13:08:31.046Z,99607.19
2019-05-23T13:11:03.458Z,99602.30
2019-05-23T13:13:35.759Z,99602.13
2019-05-23T13:16:08.162Z,99604.37
2019-05-23T13:18:40.472Z,99601.93
2019-05-23T13:21:12.843Z,99601.09
2019-05-23T13:23:45.296Z,99601.23
2019-05-23T13:26:17.719Z,99595.86
2019-05-23T13:28:50.081Z,99594.39
2019-05-23T13:31:22.485Z,99591.64
2019-05-23T13:33:54.783Z,99592.04
2019-05-23T13:36:27.101Z,99593.97
2019-05-23T13:38:59.580Z,99587.48
2019-05-23T13:41:32.126Z,99589.27
2019-05-23T13:44:04.538Z,99589.08
2019-05-23T13:46:37.521Z,99583.09
2019-05-23T13:49:09.941Z,99579.85
2019-05-23T13:51:43.622Z,99576.27
2019-05-23T13:54:15.906Z,99574.83
2019-05-23T13:56:49.109Z,99577.09
2019-05-23T13:59:21.482Z,99571.74
2019-05-23T14:01:54.190Z,99568.20
2019-05-23T14:04:27.050Z,99567.38
2019-05-23T14:07:00.525Z,99564.98
2019-05-23T14:09:32.982Z,99563.24
2019-05-23T14:12:20.466Z,99557.30
2019-05-23T14:14:39.756Z,99555.05
2019-05-23T14:17:33.843Z,99555.38
2019-05-23T14:20:06.808Z,99546.34
2019-05-23T14:22:43.277Z,99547.49
2019-05-23T14:25:15.625Z,99546.17
2019-05-23T14:28:06.535Z,99540.50
2019-05-23T14:31:09.975Z,99537.08
2019-05-23T14:33:46.758Z,99532.56
2019-05-23T14:36:56.220Z,99531.75
2019-05-23T14:39:42.004Z,99525.12
2019-05-23T14:42:36.156Z,99527.18
2019-05-23T14:45:19.410Z,99522.81
2019-05-23T14:48:01.696Z,99519.72
2019-05-23T14:50:52.917Z,99516.64
2019-05-23T14:53:27.278Z,99512.42
2019-05-23T14:55:59.574Z,99505.28
2019-05-23T14:58:32.400Z,99504.82
2019-05-23T15:01:06.412Z,99505.63
2019-05-23T15:03:39.269Z,99499.63
2019-05-23T15:06:11.684Z,99502.72
2019-05-23T15:08:51.169Z,99499.77
2019-05-23T15:11:18.199Z,99504.62
2019-05-23T15:13:50.644Z,99497.02
2019-05-23T15:16:22.936Z,99492.52
2019-05-23T15:18:55.198Z,99487.81
2019-05-23T15:21:27.574Z,99487.98
2019-05-23T15:24:00.950Z,99489.90
2019-05-23T15:26:33.432Z,99493.95
2019-05-23T15:29:05.766Z,99488.89
2019-05-23T15:31:38.068Z,99484.53
2019-05-23T15:34:10.308Z,99484.34
2019-05-23T15:36:42.845Z,99477.00
2019-05-23T15:39:15.220Z,99474.39
2019-05-23T15:41:48.118Z,99474.86
2019-05-23T15:44:26.715Z,99473.38
2019-05-23T15:46:54.601Z,99478.72
2019-05-23T15:49:27.446Z,99474.34
2019-05-23T15:52:18.693Z,99470.28
2019-05-23T15:55:04.225Z,99471.98
2019-05-23T15:58:07.165Z,99468.84
2019-05-23T16:00:55.258Z,99469.45
2019-05-23T16:03:37.242Z,99465.84
2019-05-23T16:06:11.158Z,99467.11
2019-05-23T16:08:43.830Z,99462.25
2019-05-23T16:11:17.605Z,99461.58
2019-05-23T16:13:50.234Z,99459.95
2019-05-23T16:16:22.869Z,99457.95
2019-05-23T16:18:55.232Z,99453.75
2019-05-23T16:21:27.495Z,99453.55
2019-05-23T16:24:01.811Z,99450.34
2019-05-23T16:26:34.317Z,99453.25
2019-05-23T16:29:07.029Z,99449.19
2019-05-23T16:31:39.839Z,99448.55
2019-05-23T16:34:12.211Z,99446.74
2019-05-23T16:36:44.623Z,99444.16
2019-05-23T16:39:17.424Z,99444.30
2019-05-23T16:41:49.829Z,99440.70
2019-05-23T16:44:22.216Z,99444.41
2019-05-23T16:46:54.539Z,99442.09
2019-05-23T16:49:26.953Z,99444.53
2019-05-23T16:51:59.283Z,99444.98
2019-05-23T16:54:36.529Z,99442.69
2019-05-23T16:57:37.150Z,99447.65
2019-05-23T17:00:42.586Z,99441.27
2019-05-23T17:03:45.832Z,99439.25
2019-05-23T17:06:24.483Z,99442.58
2019-05-23T17:09:14.428Z,99443.90
2019-05-23T17:12:02.201Z,99443.05
2019-05-23T17:14:41.022Z,99441.58
2019-05-23T17:17:56.954Z,99435.93
2019-05-23T17:20:20.332Z,99442.07
2019-05-23T17:22:59.399Z,99433.79
2019-05-23T17:25:50.721Z,99431.69
2019-05-23T17:28:38.073Z,99436.56
2019-05-23T17:31:13.114Z,99428.63
2019-05-23T17:33:45.575Z,99425.72
2019-05-23T17:36:19.527Z,99417.81
2019-05-23T17:38:52.939Z,99419.31
2019-05-23T17:41:25.317Z,99419.45
2019-05-23T17:43:57.659Z,99417.05
2019-05-23T17:46:30.409Z,99414.42
2019-05-23T17:49:02.807Z,99416.84
2019-05-23T17:51:35.093Z,99419.44
2019-05-23T17:54:07.553Z,99421.02
2019-05-23T17:56:39.898Z,99420.52
2019-05-23T17:59:12.247Z,99413.55
2019-05-23T18:01:45.411Z,99418.21
2019-05-23T18:04:19.003Z,99415.59
2019-05-23T18:06:51.610Z,99417.64
2019-05-23T18:09:24.379Z,99422.77
2019-05-23T18:11:56.822Z,99425.48
2019-05-23T18:14:30.707Z,99425.12
2019-05-23T18:17:03.008Z,99420.22
2019-05-23T18:19:36.112Z,99423.57
2019-05-23T18:22:10.857Z,99424.34
2019-05-23T18:24:43.460Z,99427.17
2019-05-23T18:27:15.781Z,99427.94
2019-05-23T18:29:48.381Z,99427.10
2019-05-23T18:32:24.440Z,99430.45
2019-05-23T18:34:56.961Z,99429.60
2019-05-23T18:37:29.262Z,99432.64
2019-05-23T18:40:02.079Z,99428.84
2019-05-23T18:42:35.057Z,99429.58
2019-05-23T18:45:07.571Z,99430.19
2019-05-23T18:47:41.347Z,99430.60
2019-05-23T18:50:14.948Z,99433.33
2019-05-23T18:52:47.266Z,99436.33
2019-05-23T18:55:19.667Z,99438.54
2019-05-23T18:57:52.123Z,99437.20
2019-05-23T19:01:12.081Z,99436.21
2019-05-23T19:03:44.627Z,99439.83
2019-05-23T19:06:18.300Z,99441.58
2019-05-23T19:08:51.988Z,99442.69
2019-05-23T19:11:25.623Z,99440.56
2019-05-23T19:13:57.984Z,99440.50
2019-05-23T19:16:30.308Z,99451.27
2019-05-23T19:19:02.762Z,99450.91
2019-05-23T19:21:35.697Z,99446.96
2019-05-23T19:24:08.213Z,99451.23
2019-05-23T19:26:40.737Z,99453.25
2019-05-23T19:29:13.173Z,99450.91
2019-05-23T19:31:45.498Z,99454.66
2019-05-23T19:34:17.960Z,99454.25
2019-05-23T19:36:50.722Z,99457.23
2019-05-23T19:39:25.057Z,99455.84
2019-05-23T19:41:57.467Z,99458.36
2019-05-23T19:44:29.767Z,99464.78
2019-05-23T19:47:02.124Z,99464.59
2019-05-23T19:49:34.500Z,99462.74
2019-05-23T19:52:07.682Z,99464.78
2019-05-23T19:54:40.243Z,99464.41
2019-05-23T19:57:12.636Z,99465.32
2019-05-23T19:59:45.182Z,99471.22
2019-05-23T20:02:36.630Z,99469.43
2019-05-23T20:05:20.983Z,99465.75
2019-05-23T20:07:53.411Z,99464.24
2019-05-23T20:10:26.589Z,99464.67
2019-05-23T20:12:59.064Z,99461.05
2019-05-23T20:15:32.199Z,99463.73
2019-05-23T20:18:04.891Z,99461.70
2019-05-23T20:20:39.079Z,99457.81
2019-05-23T20:23:15.826Z,99455.34
2019-05-23T20:25:46.532Z,99458.16
2019-05-23T20:28:19.112Z,99459.39
2019-05-23T20:30:56.107Z,99454.06
2019-05-23T20:33:29.007Z,99452.72
2019-05-23T20:36:03.034Z,99456.01
2019-05-23T20:38:35.957Z,99455.27
2019-05-23T20:41:08.360Z,99451.36
2019-05-23T20:43:40.688Z,99451.11
2019-05-23T20:46:13.238Z,99450.08
2019-05-23T20:48:45.560Z,99451.95
2019-05-23T20:51:17.717Z,99452.53
2019-05-23T20:53:50.032Z,99453.30
2019-05-23T20:56:22.397Z,99457.36
2019-05-23T20:58:55.282Z,99453.92
2019-05-23T21:01:32.030Z,99447.08
2019-05-23T21:04:04.433Z,99454.22
2019-05-23T21:06:36.852Z,99450.91
2019-05-23T21:09:09.856Z,99452.78
2019-05-23T21:11:42.145Z,99458.47
2019-05-23T21:14:14.847Z,99458.05
2019-05-23T21:16:47.146Z,99461.53
2019-05-23T21:19:19.464Z,99466.77
2019-05-23T21:21:51.762Z,99464.10
2019-05-23T21:24:24.238Z,99466.13
2019-05-23T21:26:57.015Z,99467.83
2019-05-23T21:29:29.431Z,99466.86
2019-05-23T21:32:02.159Z,99463.09
2019-05-23T21:34:34.593Z,99460.14
2019-05-23T21:37:06.921Z,99460.55
2019-05-23T21:39:39.151Z,99456.77
2019-05-23T21:42:11.541Z,99461.91
2019-05-23T21:44:43.867Z,99459.20
2019-05-23T21:47:16.280Z,99459.06
2019-05-23T21:49:48.505Z,99457.52
2019-05-23T21:52:20.837Z,99463.42
2019-05-23T21:54:53.140Z,99460.66
2019-05-23T21:57:25.550Z,99457.89
2019-05-23T21:59:57.941Z,99459.66
2019-05-23T22:02:33.624Z,99457.63
2019-05-23T22:05:17.007Z,99454.98
2019-05-23T22:07:49.382Z,99452.95
2019-05-23T22:10:21.726Z,99451.73
2019-05-23T22:13:03.947Z,99449.70
2019-05-23T22:15:37.798Z,99448.22
2019-05-23T22:18:10.247Z,99449.72
2019-05-23T22:20:42.680Z,99449.64
2019-05-23T22:23:15.239Z,99443.63
2019-05-23T22:25:47.639Z,99444.72
2019-05-23T22:28:20.140Z,99446.38
2019-05-23T22:30:53.616Z,99446.63
2019-05-23T22:33:27.776Z,99446.75
2019-05-23T22:36:00.866Z,99441.83
2019-05-23T22:38:33.290Z,99441.47
2019-05-23T22:41:05.611Z,99439.63
2019-05-23T22:43:37.990Z,99441.00
2019-05-23T22:46:10.955Z,99439.04
2019-05-23T22:48:43.191Z,99442.38
2019-05-23T22:51:15.602Z,99439.13
2019-05-23T22:53:47.935Z,99444.06
2019-05-23T22:56:20.238Z,99435.73
2019-05-23T22:58:52.556Z,99440.19
2019-05-23T23:01:27.070Z,99432.58
2019-05-23T23:03:59.516Z,99435.11
2019-05-23T23:06:32.077Z,99435.75
2019-05-23T23:09:06.075Z,99433.95
2019-05-23T23:11:38.522Z,99430.02
2019-05-23T23:14:10.848Z,99430.27
2019-05-23T23:16:43.417Z,99428.33
2019-05-23T23:19:15.853Z,99429.09
2019-05-23T23:21:48.308Z,99431.95
2019-05-23T23:24:20.687Z,99427.19
2019-05-23T23:26:53.121Z,99424.74
2019-05-23T23:29:25.498Z,99415.20
2019-05-23T23:31:57.887Z,99418.21
2019-05-23T23:34:30.354Z,99408.92
2019-05-23T23:37:02.744Z,99411.16
2019-05-23T23:39:35.047Z,99413.57
2019-05-23T23:42:07.521Z,99414.90
2019-05-23T23:44:38.908Z,99414.50
2019-05-23T23:47:29.121Z,99413.50
2019-05-23T23:50:18.907Z,99409.98
2019-05-23T23:53:08.826Z,99409.30
2019-05-23T23:55:58.627Z,99411.23
2019-05-23T23:58:30.148Z,99410.79
